Time;durP1;ratioP1;P1;durP2;ratioP2;P2;SDS_P1;SDS_P2;PMS_P1;PMS_P2;Temp;Humidity;BMP_temperature;BMP_pressure;BME280_temperature;BME280_humidity;BME280_pressure;Samples;Min_cycle;Max_cycle;Signal;HPM_P1;HPM_P2
2023/01/17 00:01:58;;;;;;;13.70;9.70;;;;;;;2.20;96.81;97623.16;102938;1260;107059;-75
2023/01/17 00:09:59;;;;;;;13.60;9.30;;;;;;;2.15;96.96;97601.05;103154;1260;97819;-75
2023/01/17 00:12:29;;;;;;;14.00;9.50;;;;;;;2.14;96.75;97601.61;103119;1260;111971;-77
2023/01/17 00:14:58;;;;;;;14.10;9.40;;;;;;;2.15;96.83;97602.79;103079;1259;107633;-77
2023/01/17 00:17:27;;;;;;;13.60;9.60;;;;;;;2.14;96.97;97603.15;103014;1257;138088;-77
2023/01/17 01:35:20;;;;;;;22.80;14.90;;;;;;;2.61;99.36;97498.48;102952;1257;138388;-80
2023/01/17 01:37:48;;;;;;;22.50;15.10;;;;;;;2.62;99.43;97490.21;102956;1257;97785;-80
2023/01/17 01:40:18;;;;;;;21.40;15.20;;;;;;;2.64;99.07;97479.95;102900;1260;138751;-80
2023/01/17 01:42:52;;;;;;;21.50;15.50;;;;;;;2.66;98.97;97471.10;103073;1260;97809;-80
2023/01/17 01:45:22;;;;;;;21.70;15.30;;;;;;;2.68;99.29;97469.64;103090;1259;110838;-81
2023/01/17 01:47:51;;;;;;;23.10;15.80;;;;;;;2.69;99.28;97462.58;102908;1257;139426;-80
2023/01/17 01:50:20;;;;;;;21.30;15.10;;;;;;;2.70;99.23;97458.62;102317;1260;1003597;-80
2023/01/17 01:52:52;;;;;;;22.20;15.30;;;;;;;2.71;99.63;97464.25;102917;1257;138922;-80
2023/01/17 01:55:24;;;;;;;25.20;15.80;;;;;;;2.72;99.35;97443.09;103014;1257;97815;-81
2023/01/17 01:57:58;;;;;;;25.90;15.70;;;;;;;2.74;99.45;97443.70;102282;1258;1003296;-80
2023/01/17 02:00:29;;;;;;;22.90;15.90;;;;;;;2.73;99.31;97440.10;102896;1260;138729;-81
2023/01/17 02:02:59;;;;;;;21.80;15.00;;;;;;;2.75;99.33;97437.62;103051;1260;97793;-82
2023/01/17 02:05:29;;;;;;;21.20;15.60;;;;;;;2.77;99.46;97436.70;102921;1257;138245;-81
2023/01/17 02:08:02;;;;;;;22.60;15.20;;;;;;;2.78;99.45;97444.54;103098;1257;98692;-81
2023/01/17 02:10:31;;;;;;;21.50;15.40;;;;;;;2.79;99.24;97443.45;102976;1257;140218;-81
2023/01/17 02:12:58;;;;;;;24.20;15.20;;;;;;;2.79;99.15;97435.54;103059;1257;107199;-81
2023/01/17 02:15:36;;;;;;;25.20;15.70;;;;;;;2.80;99.26;97435.51;103165;1258;98302;-82
2023/01/17 02:18:15;;;;;;;23.40;14.80;;;;;;;2.81;98.87;97441.45;103395;1258;138321;-82
2023/01/17 02:21:21;;;;;;;24.80;16.00;;;;;;;2.81;99.32;97439.90;102818;1260;325765;-81
2023/01/17 02:24:14;;;;;;;22.40;15.60;;;;;;;2.81;99.33;97434.41;103281;1257;138472;-81
2023/01/17 02:27:04;;;;;;;22.50;15.70;;;;;;;2.82;99.25;97432.14;103110;1256;106566;-82
2023/01/17 02:30:18;;;;;;;23.00;14.70;;;;;;;2.82;99.13;97428.71;102407;1257;1003060;-82
2023/01/17 02:33:00;;;;;;;23.00;15.10;;;;;;;2.83;98.85;97413.58;103147;1257;107759;-82
2023/01/17 02:35:34;;;;;;;22.80;15.10;;;;;;;2.84;98.82;97412.85;102340;1256;1002860;-83
2023/01/17 02:38:12;;;;;;;21.60;15.00;;;;;;;2.85;99.00;97416.05;102545;1256;1003166;-82
2023/01/17 02:40:43;;;;;;;24.10;14.60;;;;;;;2.85;99.15;97419.84;102889;1261;140127;-82
2023/01/17 02:43:14;;;;;;;22.80;15.40;;;;;;;2.84;99.07;97409.21;102336;1260;1003238;-81
2023/01/17 02:45:42;;;;;;;24.60;15.90;;;;;;;2.85;99.28;97416.91;102998;1257;108059;-82
2023/01/17 02:48:13;;;;;;;21.30;14.90;;;;;;;2.84;99.42;97421.73;103128;1257;138483;-81
2023/01/17 02:51:03;;;;;;;23.20;14.70;;;;;;;2.85;99.16;97415.72;103015;1256;110428;-81
2023/01/17 02:53:43;;;;;;;23.70;15.80;;;;;;;2.84;99.10;97415.91;102968;1259;139617;-80
2023/01/17 02:56:24;;;;;;;25.10;15.10;;;;;;;2.85;99.19;97418.48;103093;1256;97910;-82
2023/01/17 02:59:06;;;;;;;21.30;14.00;;;;;;;2.85;99.00;97407.30;102963;1256;138713;-82
2023/01/17 03:01:43;;;;;;;23.80;14.20;;;;;;;2.85;98.90;97407.98;103061;1259;96457;-82
2023/01/17 03:04:18;;;;;;;22.90;14.50;;;;;;;2.85;98.83;97404.87;102422;1259;1002848;-82
2023/01/17 03:06:52;;;;;;;21.80;13.90;;;;;;;2.85;98.88;97401.98;103148;1260;107412;-82
2023/01/17 03:09:21;;;;;;;25.60;15.70;;;;;;;2.86;98.73;97394.89;103107;1257;97820;-82
2023/01/17 03:11:48;;;;;;;22.00;14.80;;;;;;;2.87;98.59;97397.08;102929;1257;138440;-81
2023/01/17 03:14:15;;;;;;;21.80;13.70;;;;;;;2.88;98.40;97396.70;103100;1256;97901;-82
2023/01/17 03:16:43;;;;;;;20.80;13.90;;;;;;;2.89;98.20;97396.67;102982;1256;138410;-82
2023/01/17 03:19:13;;;;;;;22.40;14.00;;;;;;;2.89;98.40;97402.82;103435;1256;108409;-81
2023/01/17 03:21:40;;;;;;;19.80;13.90;;;;;;;2.89;98.38;97400.94;103089;1259;97973;-80
2023/01/17 03:24:08;;;;;;;23.70;14.30;;;;;;;2.90;98.34;97399.90;103036;1260;138473;-80
2023/01/17 03:26:36;;;;;;;21.80;13.90;;;;;;;2.89;98.44;97396.98;103793;1255;97609;-81
2023/01/17 03:29:03;;;;;;;21.80;14.30;;;;;;;2.89;98.31;97394.27;103625;1255;139361;-80
2023/01/17 03:31:31;;;;;;;22.80;14.10;;;;;;;2.88;98.35;97393.60;103553;1257;108463;-81
2023/01/17 03:33:58;;;;;;;19.40;13.60;;;;;;;2.89;98.32;97390.48;103981;1255;97730;-80
2023/01/17 03:36:25;;;;;;;20.70;13.90;;;;;;;2.87;98.32;97384.37;103281;1256;139985;-82
2023/01/17 03:38:52;;;;;;;21.10;13.50;;;;;;;2.88;98.21;97380.59;103039;1257;98262;-80
2023/01/17 03:41:19;;;;;;;19.20;13.10;;;;;;;2.86;98.01;97380.80;103196;1255;139788;-81
2023/01/17 03:43:46;;;;;;;20.10;14.00;;;;;;;2.85;97.81;97378.78;103409;1256;106775;-80
2023/01/17 03:46:22;;;;;;;18.60;12.90;;;;;;;2.85;98.04;97380.70;103224;1256;98314;-80
2023/01/17 03:48:50;;;;;;;23.00;14.30;;;;;;;2.84;97.94;97381.09;102652;1257;1003019;-80
2023/01/17 03:51:17;;;;;;;21.10;12.90;;;;;;;2.84;97.88;97388.12;103095;1258;97682;-81
2023/01/17 03:53:46;;;;;;;19.50;13.90;;;;;;;2.83;97.76;97380.27;103030;1260;138400;-81
2023/01/17 03:56:13;;;;;;;19.90;13.10;;;;;;;2.83;97.83;97389.39;103142;1256;107810;-81
2023/01/17 03:58:40;;;;;;;19.60;13.40;;;;;;;2.82;97.65;97390.79;103126;1258;138977;-81
2023/01/17 04:01:07;;;;;;;21.40;14.00;;;;;;;2.82;97.64;97392.88;103247;1256;107869;-79
2023/01/17 04:03:35;;;;;;;19.60;12.60;;;;;;;2.81;97.66;97384.16;103508;1256;96403;-81
2023/01/17 04:06:02;;;;;;;17.20;12.30;;;;;;;2.80;97.46;97388.48;102943;1260;138293;-80
2023/01/17 04:08:29;;;;;;;17.90;12.70;;;;;;;2.80;97.47;97396.36;103043;1257;105635;-80
2023/01/17 04:10:56;;;;;;;18.80;12.50;;;;;;;2.80;97.18;97391.55;102246;1260;1002634;-81
2023/01/17 04:13:23;;;;;;;19.30;13.40;;;;;;;2.79;97.36;97388.38;103561;1257;106888;-81
2023/01/17 04:15:51;;;;;;;23.20;14.20;;;;;;;2.79;97.15;97389.21;103087;1256;97714;-82
2023/01/17 04:18:21;;;;;;;19.30;12.60;;;;;;;2.78;97.09;97390.30;102988;1256;140479;-81
2023/01/17 04:20:49;;;;;;;19.40;13.30;;;;;;;2.78;96.95;97387.39;103126;1256;107220;-81
2023/01/17 04:23:16;;;;;;;19.10;12.90;;;;;;;2.78;96.83;97389.27;102976;1257;138317;-81
2023/01/17 04:25:44;;;;;;;21.80;14.30;;;;;;;2.79;96.84;97386.68;103126;1256;106914;-82
2023/01/17 04:28:12;;;;;;;20.40;13.90;;;;;;;2.78;96.79;97387.58;103431;1260;98010;-80
2023/01/17 04:30:39;;;;;;;22.10;14.30;;;;;;;2.77;96.75;97388.13;103365;1256;138057;-79
2023/01/17 04:33:06;;;;;;;19.90;13.30;;;;;;;2.76;96.85;97393.50;103145;1256;107495;-79
2023/01/17 04:35:34;;;;;;;20.60;13.10;;;;;;;2.75;96.54;97391.30;103054;1258;138735;-79
2023/01/17 04:38:02;;;;;;;20.70;13.50;;;;;;;2.75;96.62;97381.73;103027;1256;107665;-79
2023/01/17 04:40:29;;;;;;;21.10;14.20;;;;;;;2.73;96.53;97385.04;102293;1256;1002796;-79
2023/01/17 04:42:57;;;;;;;19.60;13.10;;;;;;;2.71;96.25;97385.46;103087;1260;111893;-79
2023/01/17 04:45:24;;;;;;;19.80;13.00;;;;;;;2.71;96.34;97395.07;103152;1260;108378;-79
2023/01/17 04:47:51;;;;;;;19.90;13.10;;;;;;;2.71;96.34;97401.29;103075;1256;138993;-79
2023/01/17 04:50:18;;;;;;;20.80;13.40;;;;;;;2.71;96.27;97402.32;103425;1257;106927;-79
2023/01/17 04:52:45;;;;;;;19.60;14.10;;;;;;;2.70;96.32;97399.42;102526;1256;1003817;-79
2023/01/17 04:55:12;;;;;;;18.80;13.40;;;;;;;2.70;96.28;97404.23;103004;1259;112430;-79
2023/01/17 04:57:40;;;;;;;22.50;13.80;;;;;;;2.68;96.17;97412.54;103103;1260;109027;-80
2023/01/17 05:00:09;;;;;;;20.50;13.80;;;;;;;2.69;96.16;97415.95;102998;1256;138640;-80
2023/01/17 05:02:36;;;;;;;21.60;13.50;;;;;;;2.67;95.99;97428.35;103209;1260;108085;-79
2023/01/17 05:05:03;;;;;;;18.80;12.80;;;;;;;2.66;95.87;97421.02;103041;1256;138477;-80
2023/01/17 05:07:30;;;;;;;20.30;12.60;;;;;;;2.67;95.64;97423.05;102977;1259;111288;-80
2023/01/17 05:09:59;;;;;;;20.70;13.20;;;;;;;2.68;95.75;97424.39;103060;1257;105495;-80
2023/01/17 05:12:27;;;;;;;19.00;12.60;;;;;;;2.67;95.80;97420.46;103033;1256;139292;-80
2023/01/17 05:14:54;;;;;;;20.60;13.10;;;;;;;2.67;95.85;97416.70;103044;1256;108728;-80
2023/01/17 05:17:22;;;;;;;22.60;14.50;;;;;;;2.66;95.85;97415.89;102946;1256;138754;-80
2023/01/17 05:19:50;;;;;;;20.00;13.20;;;;;;;2.66;95.83;97416.25;103076;1256;111336;-81
2023/01/17 05:22:17;;;;;;;20.10;13.00;;;;;;;2.63;95.91;97418.24;103010;1256;108206;-80
2023/01/17 05:24:46;;;;;;;21.40;13.80;;;;;;;2.61;95.73;97425.72;102963;1256;224790;-80
2023/01/17 05:27:14;;;;;;;23.60;14.40;;;;;;;2.60;95.83;97423.23;102320;1256;1003582;-80
2023/01/17 05:29:41;;;;;;;21.80;14.60;;;;;;;2.58;95.87;97422.60;102573;1255;1003761;-79
2023/01/17 05:32:08;;;;;;;22.60;14.70;;;;;;;2.57;95.91;97422.18;103118;1258;110441;-79
2023/01/17 05:34:36;;;;;;;20.80;13.80;;;;;;;2.55;95.83;97431.02;102968;1256;138926;-78
2023/01/17 05:37:03;;;;;;;23.90;14.40;;;;;;;2.53;95.68;97429.19;103104;1256;98313;-78
2023/01/17 05:39:30;;;;;;;20.50;13.50;;;;;;;2.52;95.87;97426.34;103831;1255;106787;-78
2023/01/17 05:41:58;;;;;;;23.90;15.00;;;;;;;2.50;95.86;97418.52;102212;1256;1003773;-80
2023/01/17 05:44:26;;;;;;;26.70;14.60;;;;;;;2.48;95.70;97426.48;103129;1259;111336;-80
2023/01/17 05:46:53;;;;;;;24.60;15.00;;;;;;;2.47;95.63;97427.40;102857;1256;138734;-78
2023/01/17 05:49:21;;;;;;;21.20;13.80;;;;;;;2.45;95.53;97430.91;103604;1256;98335;-78
2023/01/17 05:51:48;;;;;;;26.60;13.00;;;;;;;2.43;95.73;97436.47;102412;1257;1002980;-79
2023/01/17 05:54:15;;;;;;;23.60;13.70;;;;;;;2.42;95.78;97428.98;103083;1256;138671;-79
2023/01/17 05:56:43;;;;;;;23.80;14.50;;;;;;;2.41;95.71;97435.05;102566;1257;1002936;-78
2023/01/17 05:59:10;;;;;;;23.20;14.30;;;;;;;2.39;95.65;97444.05;102842;1261;140375;-81
2023/01/17 06:01:40;;;;;;;20.20;14.00;;;;;;;2.36;95.82;97444.67;103029;1256;97916;-78
2023/01/17 06:04:07;;;;;;;22.90;13.90;;;;;;;2.34;95.71;97442.55;102970;1257;107274;-79
2023/01/17 06:06:34;;;;;;;23.10;14.00;;;;;;;2.31;95.77;97447.27;102976;1257;139294;-79
2023/01/17 06:09:01;;;;;;;22.80;13.60;;;;;;;2.28;96.01;97449.46;102988;1256;110823;-78
2023/01/17 06:11:29;;;;;;;24.00;14.20;;;;;;;2.25;95.80;97449.27;102964;1260;138565;-78
2023/01/17 06:13:56;;;;;;;24.80;14.50;;;;;;;2.23;95.84;97448.02;102394;1256;1002540;-78
2023/01/17 06:16:24;;;;;;;22.80;15.20;;;;;;;2.19;96.03;97448.20;103071;1256;108779;-78
2023/01/17 06:18:51;;;;;;;22.30;14.60;;;;;;;2.18;96.29;97451.84;103061;1260;97779;-78
2023/01/17 06:21:19;;;;;;;21.50;14.30;;;;;;;2.16;96.23;97445.41;103080;1256;111623;-81
2023/01/17 06:23:46;;;;;;;22.30;14.20;;;;;;;2.14;96.23;97445.45;102840;1256;140043;-80
2023/01/17 06:26:13;;;;;;;22.40;14.20;;;;;;;2.12;96.44;97439.56;103054;1260;97824;-80
2023/01/17 06:28:41;;;;;;;28.30;14.90;;;;;;;2.10;96.57;97437.25;103055;1255;138372;-80
2023/01/17 06:31:09;;;;;;;21.80;15.00;;;;;;;2.08;96.56;97440.58;103148;1256;98133;-79
2023/01/17 06:33:36;;;;;;;20.90;13.90;;;;;;;2.06;96.75;97439.46;103208;1259;110670;-79
2023/01/17 06:36:05;;;;;;;22.50;14.60;;;;;;;2.05;96.76;97442.96;102951;1256;138339;-80
2023/01/17 06:38:32;;;;;;;23.20;14.70;;;;;;;2.03;96.69;97436.84;103087;1260;97814;-83
2023/01/17 06:41:03;;;;;;;21.40;13.40;;;;;;;2.02;96.66;97440.02;103031;1256;139441;-81
2023/01/17 06:43:32;;;;;;;22.70;14.20;;;;;;;2.01;96.70;97444.83;103090;1255;97851;-81
2023/01/17 06:46:00;;;;;;;22.40;14.00;;;;;;;2.01;96.68;97452.91;103027;1256;111271;-81
2023/01/17 06:48:27;;;;;;;23.00;14.20;;;;;;;2.00;96.62;97457.94;102964;1256;137686;-83
2023/01/17 06:50:54;;;;;;;21.40;13.50;;;;;;;1.99;96.39;97464.13;103016;1256;97787;-80
2023/01/17 06:53:22;;;;;;;20.60;13.60;;;;;;;1.98;96.52;97466.75;102993;1258;138147;-82
2023/01/17 06:55:49;;;;;;;21.40;13.50;;;;;;;1.98;96.59;97473.41;103161;1260;97832;-85
2023/01/17 06:58:16;;;;;;;22.00;13.90;;;;;;;2.00;96.51;97473.52;103125;1255;111248;-84
2023/01/17 07:00:43;;;;;;;24.40;14.60;;;;;;;2.01;96.63;97481.70;103082;1256;138310;-81
2023/01/17 07:03:19;;;;;;;22.50;13.40;;;;;;;2.02;96.45;97485.42;103204;1258;97839;-78
2023/01/17 07:05:47;;;;;;;22.10;13.50;;;;;;;2.04;96.34;97487.04;103564;1255;139412;-79
2023/01/17 07:08:16;;;;;;;23.10;14.00;;;;;;;2.10;96.36;97492.27;103191;1256;97732;-80
2023/01/17 07:10:44;;;;;;;25.10;14.20;;;;;;;2.19;96.50;97495.31;102302;1259;1003699;-78
2023/01/17 07:13:11;;;;;;;20.30;12.80;;;;;;;2.29;96.12;97495.20;103007;1259;107902;-80
2023/01/17 07:15:39;;;;;;;20.70;12.70;;;;;;;2.41;95.84;97489.55;102839;1256;98326;-79
2023/01/17 07:18:06;;;;;;;18.80;12.60;;;;;;;2.53;95.38;97484.95;103027;1259;139982;-78
2023/01/17 07:20:34;;;;;;;18.30;11.90;;;;;;;2.66;95.08;97484.36;103121;1258;97897;-79
2023/01/17 07:23:01;;;;;;;20.10;11.80;;;;;;;2.78;94.67;97483.61;102147;1256;1002897;-78
2023/01/17 07:25:28;;;;;;;16.80;11.40;;;;;;;2.94;94.25;97491.29;102987;1259;108777;-77
2023/01/17 07:27:56;;;;;;;16.50;10.90;;;;;;;3.09;93.23;97495.13;103099;1256;98445;-78
2023/01/17 07:30:23;;;;;;;17.70;10.80;;;;;;;3.19;92.37;97482.96;103093;1255;138253;-76
2023/01/17 07:32:54;;;;;;;16.80;10.60;;;;;;;3.33;91.77;97487.09;102316;1256;1002829;-77
2023/01/17 07:35:21;;;;;;;15.90;10.60;;;;;;;3.49;91.67;97484.13;103485;1256;139006;-80
2023/01/17 07:37:52;;;;;;;16.60;10.60;;;;;;;3.68;91.19;97481.64;102297;1256;1003849;-80
2023/01/17 07:40:21;;;;;;;15.10;10.40;;;;;;;3.88;90.68;97477.77;103026;1256;97713;-80
2023/01/17 07:42:48;;;;;;;15.10;10.00;;;;;;;4.06;89.70;97467.75;102968;1256;108526;-80
2023/01/17 07:45:17;;;;;;;13.00;9.20;;;;;;;4.23;88.74;97463.23;102177;1256;1003468;-81
2023/01/17 07:47:44;;;;;;;14.20;9.30;;;;;;;4.42;88.07;97465.21;103594;1256;139729;-80
2023/01/17 07:50:13;;;;;;;13.80;10.10;;;;;;;4.57;87.22;97468.23;103123;1255;108171;-80
2023/01/17 07:52:41;;;;;;;16.70;10.90;;;;;;;4.70;86.87;97475.11;103126;1255;139713;-79
2023/01/17 07:55:11;;;;;;;15.90;9.30;;;;;;;4.84;86.01;97475.73;103126;1256;107823;-80
2023/01/17 07:57:37;;;;;;;14.00;9.60;;;;;;;4.97;84.48;97479.71;103027;1260;97782;-81
2023/01/17 08:00:08;;;;;;;14.20;9.70;;;;;;;5.03;84.23;97491.25;103043;1256;138517;-80
2023/01/17 08:02:37;;;;;;;16.80;10.30;;;;;;;5.08;83.66;97493.88;102727;1259;1002846;-81
2023/01/17 08:05:05;;;;;;;18.10;9.80;;;;;;;5.16;83.23;97502.61;102801;1260;138703;-83
2023/01/17 08:07:33;;;;;;;13.20;9.10;;;;;;;5.20;83.19;97516.85;103030;1256;108097;-77
2023/01/17 08:10:00;;;;;;;13.20;9.20;;;;;;;5.18;81.95;97524.89;102952;1260;97839;-79
2023/01/17 08:12:28;;;;;;;15.00;10.00;;;;;;;5.16;81.46;97532.20;102190;1256;1003239;-83
2023/01/17 08:14:55;;;;;;;13.10;9.30;;;;;;;5.14;81.52;97532.98;103012;1256;106894;-80
2023/01/17 08:17:23;;;;;;;14.90;9.40;;;;;;;5.18;81.70;97533.33;102848;1259;138326;-80
2023/01/17 08:19:51;;;;;;;13.60;9.30;;;;;;;5.23;81.96;97538.22;103082;1256;107448;-80
2023/01/17 08:22:18;;;;;;;14.80;9.70;;;;;;;5.25;81.54;97531.40;103253;1258;97858;-81
2023/01/17 08:24:45;;;;;;;14.20;9.60;;;;;;;5.29;81.82;97528.93;103025;1256;137974;-82
2023/01/17 08:27:12;;;;;;;11.30;8.60;;;;;;;5.31;81.14;97527.83;103032;1258;107107;-81
2023/01/17 08:29:45;;;;;;;12.50;8.70;;;;;;;5.24;80.94;97524.94;102994;1259;138337;-81
2023/01/17 08:32:12;;;;;;;13.80;9.20;;;;;;;5.21;81.23;97522.13;103486;1256;107129;-82
2023/01/17 08:34:39;;;;;;;13.00;9.00;;;;;;;5.26;81.24;97520.80;102930;1256;138347;-86
2023/01/17 08:37:07;;;;;;;12.40;8.50;;;;;;;5.32;81.53;97518.79;103184;1256;111527;-86
2023/01/17 08:39:34;;;;;;;12.30;8.20;;;;;;;5.34;81.30;97513.33;103045;1256;107786;-79
2023/01/17 08:42:01;;;;;;;12.60;8.20;;;;;;;5.36;80.88;97512.52;102941;1256;138923;-82
2023/01/17 08:44:28;;;;;;;12.80;8.60;;;;;;;5.32;80.65;97507.55;103061;1260;107975;-85
2023/01/17 08:46:55;;;;;;;10.60;7.30;;;;;;;5.31;80.95;97506.77;102927;1256;138567;-83
2023/01/17 08:49:23;;;;;;;10.90;7.60;;;;;;;5.26;80.52;97500.67;103105;1256;112159;-83
2023/01/17 08:51:51;;;;;;;11.70;7.90;;;;;;;5.20;80.04;97496.85;103135;1260;107959;-84
2023/01/17 08:54:18;;;;;;;10.80;8.10;;;;;;;5.15;80.68;97493.84;103027;1256;138481;-83
2023/01/17 08:56:46;;;;;;;12.50;8.30;;;;;;;5.11;80.30;97490.13;103134;1256;108763;-83
2023/01/17 08:59:14;;;;;;;13.20;8.30;;;;;;;5.08;79.86;97488.77;102286;1260;1002726;-78
2023/01/17 09:01:41;;;;;;;10.90;8.00;;;;;;;5.05;80.33;97490.29;103088;1258;111499;-79
2023/01/17 09:04:08;;;;;;;10.70;7.60;;;;;;;5.00;80.34;97489.14;103071;1259;108046;-81
2023/01/17 09:06:38;;;;;;;11.50;7.80;;;;;;;4.91;80.15;97493.13;102937;1258;138360;-84
2023/01/17 09:09:07;;;;;;;12.80;9.10;;;;;;;4.83;80.28;97492.13;103094;1259;108191;-84
2023/01/17 09:11:35;;;;;;;10.70;7.80;;;;;;;4.72;80.15;97488.92;103023;1256;143039;-84
2023/01/17 09:14:02;;;;;;;11.90;8.00;;;;;;;4.61;80.39;97495.37;103027;1256;110905;-78
2023/01/17 09:16:30;;;;;;;13.10;8.70;;;;;;;4.49;80.77;97491.32;102859;1256;139647;-80
2023/01/17 09:18:58;;;;;;;12.20;8.30;;;;;;;4.44;81.10;97497.11;103047;1256;99547;-82
2023/01/17 09:21:26;;;;;;;12.70;8.00;;;;;;;4.36;81.17;97503.06;102971;1259;108389;-79
2023/01/17 09:23:54;;;;;;;14.10;8.70;;;;;;;4.29;81.50;97504.92;102935;1260;138319;-78
2023/01/17 09:26:23;;;;;;;13.70;8.70;;;;;;;4.20;81.47;97501.22;103171;1259;111957;-79
2023/01/17 09:28:51;;;;;;;14.10;9.10;;;;;;;4.15;81.93;97499.95;103315;1256;138726;-79
2023/01/17 09:31:20;;;;;;;13.10;8.60;;;;;;;4.13;81.90;97503.65;103109;1256;97683;-78
2023/01/17 09:33:47;;;;;;;15.20;8.90;;;;;;;4.09;81.96;97507.13;103092;1256;106980;-80
2023/01/17 09:36:14;;;;;;;11.40;8.50;;;;;;;4.04;82.34;97510.33;102935;1258;138395;-80
2023/01/17 09:38:42;;;;;;;12.90;8.70;;;;;;;3.97;81.94;97517.71;103006;1257;110477;-80
2023/01/17 09:41:26;;;;;;;14.00;9.00;;;;;;;3.90;82.29;97523.02;102975;1256;138395;-80
2023/01/17 09:44:01;;;;;;;11.50;8.30;;;;;;;3.86;82.88;97521.52;103192;1256;97844;-84
2023/01/17 09:46:32;;;;;;;13.50;8.30;;;;;;;3.84;83.22;97524.02;103017;1257;138359;-80
2023/01/17 09:49:07;;;;;;;12.30;8.40;;;;;;;3.81;82.97;97520.39;103015;1260;97933;-84
2023/01/17 09:51:34;;;;;;;13.80;8.70;;;;;;;3.80;83.14;97521.98;103295;1256;110618;-83
2023/01/17 09:54:02;;;;;;;13.80;8.90;;;;;;;3.78;82.93;97520.55;103004;1258;138406;-81
2023/01/17 09:56:35;;;;;;;13.40;8.70;;;;;;;3.75;83.10;97531.31;102275;1258;1003227;-81
2023/01/17 09:59:19;;;;;;;14.60;9.00;;;;;;;3.72;82.86;97526.69;103005;1256;138890;-81
2023/01/17 10:01:55;;;;;;;13.50;9.10;;;;;;;3.69;83.28;97522.52;103146;1259;98147;-83
2023/01/17 10:04:39;;;;;;;13.30;9.00;;;;;;;3.70;83.55;97528.28;103174;1257;111499;-81
2023/01/17 10:07:19;;;;;;;15.60;9.20;;;;;;;3.70;83.39;97526.59;103034;1260;107892;-86
2023/01/17 10:10:04;;;;;;;13.60;9.10;;;;;;;3.71;83.68;97534.81;103183;1257;97795;-82
2023/01/17 10:12:39;;;;;;;14.10;9.50;;;;;;;3.68;83.39;97537.49;103036;1259;138227;-81
2023/01/17 10:15:24;;;;;;;14.40;9.80;;;;;;;3.66;83.36;97546.23;102952;1257;98321;-78
2023/01/17 10:17:58;;;;;;;16.50;9.30;;;;;;;3.62;83.20;97552.20;102936;1257;138082;-80
2023/01/17 10:20:40;;;;;;;16.60;10.10;;;;;;;3.60;83.15;97554.39;103033;1260;107746;-84
2023/01/17 10:23:24;;;;;;;14.00;9.70;;;;;;;3.57;83.12;97542.81;102257;1260;1141056;-83
2023/01/17 10:25:54;;;;;;;17.40;9.60;;;;;;;3.55;83.18;97548.55;103136;1256;108002;-80
2023/01/17 10:28:26;;;;;;;14.00;10.40;;;;;;;3.55;83.34;97552.03;103153;1260;97836;-79
2023/01/17 10:30:56;;;;;;;14.50;10.40;;;;;;;3.54;83.25;97547.44;102166;1259;1002610;-86
2023/01/17 10:33:29;;;;;;;13.80;9.20;;;;;;;3.54;83.41;97550.52;103039;1257;107721;-84
2023/01/17 10:35:59;;;;;;;14.70;9.90;;;;;;;3.56;83.33;97556.26;102976;1259;138602;-85
2023/01/17 10:38:31;;;;;;;16.50;9.90;;;;;;;3.58;83.40;97553.76;103122;1257;106600;-86
2023/01/17 10:41:04;;;;;;;13.70;9.80;;;;;;;3.63;83.53;97558.37;103010;1260;138390;-84
2023/01/17 10:43:40;;;;;;;15.00;10.20;;;;;;;3.65;82.88;97556.02;102342;1258;1003019;-82
2023/01/17 10:46:19;;;;;;;16.60;9.40;;;;;;;3.69;83.23;97550.37;103009;1260;107240;-85
2023/01/17 10:48:49;;;;;;;17.40;9.50;;;;;;;3.70;83.32;97551.34;103017;1258;138030;-83
2023/01/17 10:51:48;;;;;;;15.10;9.40;;;;;;;3.72;83.25;97558.29;103126;1259;107210;-83
2023/01/17 10:54:28;;;;;;;16.40;9.80;;;;;;;3.75;83.36;97550.57;102784;1260;138324;-84
2023/01/17 10:56:55;;;;;;;17.00;10.20;;;;;;;3.77;83.03;97550.48;102940;1258;112530;-84
2023/01/17 10:59:30;;;;;;;15.40;9.80;;;;;;;3.79;82.92;97549.52;102117;1257;1002769;-84
2023/01/17 11:01:57;;;;;;;14.50;9.30;;;;;;;3.81;82.70;97551.66;103009;1258;98343;-81
2023/01/17 11:04:30;;;;;;;16.40;9.80;;;;;;;3.81;82.40;97548.23;102220;1256;1003579;-81
2023/01/17 11:07:13;;;;;;;14.60;9.40;;;;;;;3.82;82.27;97549.39;102262;1256;1003237;-80
2023/01/17 11:09:43;;;;;;;17.20;10.40;;;;;;;3.83;82.79;97552.45;103011;1259;111298;-87
2023/01/17 11:12:23;;;;;;;14.00;9.70;;;;;;;3.84;82.79;97550.98;102882;1256;138450;-84
2023/01/17 11:15:22;;;;;;;18.50;10.80;;;;;;;3.87;82.58;97552.73;103762;1260;98323;-77
2023/01/17 11:17:51;;;;;;;16.70;10.60;;;;;;;3.87;82.38;97555.33;102791;1256;138243;-85
2023/01/17 11:20:23;;;;;;;19.40;10.90;;;;;;;3.86;82.27;97558.82;102328;1256;1003242;-77
2023/01/17 11:23:05;;;;;;;17.70;11.30;;;;;;;3.85;82.31;97561.80;102958;1256;139146;-82
2023/01/17 11:25:34;;;;;;;19.40;10.90;;;;;;;3.84;82.38;97551.01;102383;1260;1003380;-86
2023/01/17 11:28:04;;;;;;;18.60;10.80;;;;;;;3.83;82.34;97554.15;103087;1256;99519;-85
2023/01/17 11:30:31;;;;;;;18.80;10.70;;;;;;;3.82;82.52;97552.48;103068;1256;138312;-83
2023/01/17 11:33:02;;;;;;;20.10;11.30;;;;;;;3.83;82.56;97554.14;103066;1256;97917;-85
2023/01/17 11:35:31;;;;;;;17.30;10.60;;;;;;;3.84;82.55;97561.83;103104;1255;138337;-85
2023/01/17 11:38:17;;;;;;;18.80;10.90;;;;;;;3.86;82.54;97558.65;103147;1256;107769;-84
2023/01/17 11:40:46;;;;;;;15.70;10.50;;;;;;;3.88;82.46;97566.08;103060;1256;139426;-81
2023/01/17 11:43:26;;;;;;;17.00;10.90;;;;;;;3.91;82.65;97570.44;103303;1260;107628;-84
2023/01/17 11:46:06;;;;;;;14.80;9.80;;;;;;;3.92;82.20;97576.53;103113;1256;97897;-83
2023/01/17 11:48:38;;;;;;;17.00;11.00;;;;;;;3.93;82.32;97569.10;103320;1256;138122;-83
2023/01/17 11:51:19;;;;;;;17.00;10.50;;;;;;;3.95;82.50;97571.78;103118;1256;107761;-85
2023/01/17 11:53:48;;;;;;;20.00;11.10;;;;;;;3.98;82.47;97570.45;103006;1260;138843;-85
2023/01/17 11:56:23;;;;;;;16.60;11.20;;;;;;;4.00;82.50;97573.10;101665;1256;1002957;-78
2023/01/17 11:58:51;;;;;;;15.30;10.40;;;;;;;4.02;82.18;97573.16;103428;1256;140440;-81
2023/01/17 12:01:33;;;;;;;17.00;10.80;;;;;;;4.04;82.32;97575.62;103126;1260;111089;-78
2023/01/17 12:04:28;;;;;;;14.70;10.20;;;;;;;4.05;81.55;97579.36;102939;1260;106499;-75
2023/01/17 12:07:15;;;;;;;15.90;10.20;;;;;;;4.03;81.74;97580.14;102629;1262;97927;-75
2023/01/17 12:09:50;;;;;;;19.10;11.30;;;;;;;4.03;81.86;97578.80;102608;1262;107215;-74
2023/01/17 12:15:28;;;;;;;21.80;11.90;;;;;;;4.02;81.69;97576.45;102704;1261;111370;-74
2023/01/17 12:18:10;;;;;;;20.50;11.60;;;;;;;4.01;81.65;97575.63;103232;1261;139961;-76
2023/01/17 12:20:47;;;;;;;17.00;11.00;;;;;;;3.99;82.02;97582.44;102758;1264;98449;-76
2023/01/17 12:23:30;;;;;;;19.80;11.50;;;;;;;3.98;82.03;97573.73;102553;1261;138397;-76
2023/01/17 12:26:11;;;;;;;16.10;10.80;;;;;;;3.98;82.21;97570.96;102702;1261;97968;-76
2023/01/17 12:28:57;;;;;;;21.20;13.20;;;;;;;3.98;82.20;97573.17;101890;1262;1003532;-77
2023/01/17 12:31:33;;;;;;;20.80;12.20;;;;;;;3.97;82.27;97573.41;102623;1260;107623;-79
2023/01/17 12:34:13;;;;;;;20.40;12.10;;;;;;;3.97;82.68;97566.04;102493;1261;97907;-76
2023/01/17 12:36:47;;;;;;;18.50;11.30;;;;;;;3.96;82.71;97569.19;103022;1264;138104;-79
2023/01/17 12:39:17;;;;;;;21.40;13.10;;;;;;;3.94;82.63;97565.48;102823;1261;97994;-76
2023/01/17 12:41:57;;;;;;;22.00;13.40;;;;;;;3.93;82.84;97562.40;102606;1261;142114;-78
2023/01/17 12:44:38;;;;;;;21.70;13.20;;;;;;;3.95;82.87;97567.30;103079;1256;110352;-79
2023/01/17 12:47:06;;;;;;;20.70;12.30;;;;;;;3.98;83.03;97575.95;102909;1259;138646;-78
2023/01/17 12:49:40;;;;;;;25.50;13.60;;;;;;;3.99;83.03;97576.06;102968;1260;107836;-78
2023/01/17 12:52:15;;;;;;;20.60;13.00;;;;;;;4.02;83.14;97577.33;103706;1256;1002169;-79
2023/01/17 12:54:48;;;;;;;20.20;13.10;;;;;;;4.05;83.31;97580.59;104420;1256;138922;-77